createdAt,value
2023-03-25T00:02:07.868Z,5
2023-03-25T00:07:44.856Z,4.9
2023-03-25T00:13:05.690Z,4.9
2023-03-25T00:18:58.047Z,4.8
2023-03-25T00:24:18.297Z,4.7
2023-03-25T00:29:54.378Z,4.6
2023-03-25T00:35:31.521Z,4.6
2023-03-25T00:41:23.610Z,4.4
2023-03-25T00:47:00.547Z,4.4
2023-03-25T00:52:47.591Z,4.3
2023-03-25T00:58:38.601Z,4.2
2023-03-25T01:04:31.771Z,4.1
2023-03-25T01:10:08.348Z,4.1
2023-03-25T01:15:44.809Z,4
2023-03-25T01:21:21.775Z,4
2023-03-25T01:27:13.836Z,3.9
2023-03-25T01:33:05.776Z,3.9
2023-03-25T01:38:26.768Z,3.8
2023-03-25T01:49:34.748Z,3.6
2023-03-25T01:55:26.078Z,3.5
2023-03-25T02:01:02.508Z,3.4
2023-03-25T02:06:39.207Z,3.3
2023-03-25T02:12:15.236Z,3.2
2023-03-25T02:18:07.639Z,3.1
2023-03-25T02:23:59.067Z,2.9
2023-03-25T02:29:34.695Z,2.8
2023-03-25T02:35:26.647Z,2.7
2023-03-25T02:41:02.821Z,2.6
2023-03-25T02:46:38.834Z,2.4
2023-03-25T02:52:30.886Z,2.4
2023-03-25T02:58:22.181Z,2.3
2023-03-25T03:04:14.078Z,2.2
2023-03-25T03:09:34.903Z,2.1
2023-03-25T03:15:10.274Z,2
2023-03-25T03:21:02.465Z,1.9
2023-03-25T03:26:54.577Z,1.9
2023-03-25T03:33:32.810Z,1.8
2023-03-25T03:39:24.263Z,1.7
2023-03-25T03:45:00.618Z,1.6
2023-03-25T03:50:52.589Z,1.6
2023-03-25T03:56:28.839Z,1.5
2023-03-25T04:02:20.808Z,1.5
2023-03-25T04:07:56.906Z,1.5
2023-03-25T04:13:48.267Z,1.4
2023-03-25T04:19:27.169Z,1.4
2023-03-25T04:25:03.380Z,1.4
2023-03-25T04:30:39.399Z,1.4
2023-03-25T04:36:31.784Z,1.5
2023-03-25T04:42:23.027Z,1.5
2023-03-25T04:47:44.002Z,1.5
2023-03-25T04:53:35.798Z,1.6
2023-03-25T04:59:27.647Z,1.7
2023-03-25T05:05:19.501Z,1.8
2023-03-25T05:11:11.326Z,2
2023-03-25T05:17:02.807Z,2.3
2023-03-25T05:22:38.953Z,2.9
2023-03-25T05:28:30.785Z,3.7
2023-03-25T05:34:23.443Z,4.7
2023-03-25T05:40:15.708Z,5.9
2023-03-25T05:45:52.778Z,7.3
2023-03-25T05:51:44.073Z,8.8
2023-03-25T05:57:40.009Z,10.6
2023-03-25T06:03:48.725Z,12.4
2023-03-25T06:09:38.937Z,10.7
2023-03-25T06:15:30.142Z,33.7
2023-03-25T06:21:22.066Z,31.4
2023-03-25T06:27:13.450Z,30.8
2023-03-25T06:33:04.788Z,42.2
2023-03-25T06:39:17.813Z,42.7
2023-03-25T06:44:53.844Z,43.6
2023-03-25T06:50:30.210Z,44.4
2023-03-25T06:56:21.988Z,45.3
2023-03-25T07:02:13.304Z,46.1
2023-03-25T07:08:06.469Z,47
2023-03-25T07:13:58.788Z,47.9
2023-03-25T07:19:54.176Z,48.9
2023-03-25T07:25:48.484Z,49.9
2023-03-25T07:31:41.173Z,51
2023-03-25T07:37:33.712Z,52.1
2023-03-25T07:43:26.127Z,53.2
2023-03-25T07:49:24.865Z,54.4
2023-03-25T07:55:17.326Z,55.5
2023-03-25T08:01:11.793Z,56.7
2023-03-25T08:07:06.166Z,57.8
2023-03-25T08:13:00.219Z,58.9
2023-03-25T08:18:52.566Z,60.1
2023-03-25T08:24:31.299Z,61.3
2023-03-25T08:30:24.101Z,61.6
2023-03-25T08:36:15.749Z,60.8
2023-03-25T08:41:52.052Z,60.4
2023-03-25T08:47:27.881Z,60.4
2023-03-25T08:53:18.473Z,62.3
2023-03-25T08:58:39.720Z,62.2
2023-03-25T09:04:34.581Z,63.4
2023-03-25T09:10:36.660Z,64.4
2023-03-25T09:16:38.724Z,65.6
2023-03-25T09:22:32.381Z,64.4
2023-03-25T09:28:25.047Z,64.9
2023-03-25T09:34:17.647Z,65.4
2023-03-25T09:39:54.490Z,66.8
2023-03-25T09:45:50.239Z,66.7
2023-03-25T09:51:45.590Z,66.1
2023-03-25T09:57:37.800Z,66.4
2023-03-25T10:03:15.225Z,66.4
2023-03-25T10:08:51.887Z,66.6
2023-03-25T10:14:30.664Z,66.9
2023-03-25T10:20:22.598Z,66.6
2023-03-25T10:26:14.546Z,66.4
2023-03-25T10:32:06.129Z,67.5
2023-03-25T10:37:59.557Z,67.1
2023-03-25T10:43:51.927Z,68.4
2023-03-25T10:49:43.738Z,69.5
2023-03-25T10:55:35.328Z,70.3
2023-03-25T11:01:27.084Z,70.6
2023-03-25T11:07:19.839Z,71.4
2023-03-25T11:13:37.307Z,66.8
2023-03-25T11:19:18.144Z,67.9
2023-03-25T11:25:09.625Z,68.5
2023-03-25T11:31:01.501Z,69.6
2023-03-25T11:36:53.854Z,70
2023-03-25T11:42:46.149Z,68.9
2023-03-25T11:48:06.982Z,68.1
2023-03-25T11:53:43.517Z,67.1
2023-03-25T11:59:35.218Z,54.8
2023-03-25T12:04:56.960Z,49.3
2023-03-25T12:10:33.643Z,49.9
2023-03-25T12:16:28.545Z,48.1
2023-03-25T12:22:21.583Z,46.3
2023-03-25T12:27:56.748Z,46.5
2023-03-25T12:33:49.491Z,46.6
2023-03-25T12:39:57.985Z,46.7
2023-03-25T12:45:50.273Z,46.4
2023-03-25T12:51:29.612Z,46.3
2023-03-25T12:56:50.675Z,46.3
2023-03-25T13:02:44.324Z,45.9
2023-03-25T13:08:36.089Z,45.4
2023-03-25T13:14:28.049Z,44.8
2023-03-25T13:20:13.627Z,44.3
2023-03-25T13:26:10.715Z,43.8
2023-03-25T13:32:03.558Z,42.8
2023-03-25T13:37:40.581Z,40.1
2023-03-25T13:43:35.413Z,38.1
2023-03-25T13:49:12.959Z,36
2023-03-25T13:54:51.091Z,34.2
2023-03-25T14:00:43.494Z,32.6
2023-03-25T14:06:38.229Z,31.3
2023-03-25T14:12:30.254Z,30.1
2023-03-25T14:17:51.738Z,29.1
2023-03-25T14:23:32.592Z,27.9
2023-03-25T14:29:24.565Z,26.7
2023-03-25T14:35:18.496Z,25.4
2023-03-25T14:41:07.378Z,24.4
2023-03-25T14:46:43.916Z,23.7
2023-03-25T14:52:35.094Z,23.2
2023-03-25T14:58:28.827Z,22.7
2023-03-25T15:04:22.811Z,22.4
2023-03-25T15:10:14.159Z,22.3
2023-03-25T15:15:50.521Z,22.2
2023-03-25T15:21:42.796Z,22.1
2023-03-25T15:27:34.477Z,21.9
2023-03-25T15:33:26.529Z,21.6
2023-03-25T15:39:29.512Z,21.3
2023-03-25T15:45:33.194Z,21.1
2023-03-25T15:51:25.793Z,20.8
2023-03-25T15:57:22.891Z,20.5
2023-03-25T16:03:14.017Z,20.3
2023-03-25T16:09:05.819Z,20
2023-03-25T16:14:57.317Z,19.7
2023-03-25T16:20:33.881Z,19.6
2023-03-25T16:26:12.169Z,19.3
2023-03-25T16:31:51.205Z,19.1
2023-03-25T16:37:26.933Z,18.9
2023-03-25T16:43:03.254Z,18.6
2023-03-25T16:48:41.049Z,18.4
2023-03-25T16:54:16.794Z,18.1
2023-03-25T17:00:08.841Z,17.7
2023-03-25T17:06:01.956Z,17.3
2023-03-25T17:11:53.296Z,16.9
2023-03-25T17:17:32.476Z,16.5
2023-03-25T17:23:09.751Z,16.1
2023-03-25T17:29:01.777Z,15.7
2023-03-25T17:34:55.089Z,15.3
2023-03-25T17:40:31.725Z,14.9
2023-03-25T17:46:25.156Z,14.6
2023-03-25T17:52:16.469Z,14.3
2023-03-25T17:58:07.814Z,13.9
2023-03-25T18:04:00.403Z,13.6
2023-03-25T18:09:51.449Z,13.3
2023-03-25T18:15:42.727Z,12.9
2023-03-25T18:21:19.915Z,12.6
2023-03-25T18:27:08.869Z,12.3
2023-03-25T18:33:15.222Z,11.9
2023-03-25T18:39:06.791Z,11.7
2023-03-25T18:44:42.505Z,11.4
2023-03-25T18:50:34.485Z,11.1
2023-03-25T18:56:09.667Z,10.9
2023-03-25T19:02:01.169Z,10.7
2023-03-25T19:08:06.945Z,10.5
2023-03-25T19:14:11.044Z,10.3
2023-03-25T19:20:10.817Z,10.1
2023-03-25T19:26:02.028Z,9.9
2023-03-25T19:31:53.896Z,9.8
2023-03-25T19:37:46.348Z,9.6
2023-03-25T19:43:23.469Z,9.4
2023-03-25T19:49:01.032Z,9.3
2023-03-25T19:54:51.677Z,9.1
2023-03-25T20:00:43.468Z,8.9
2023-03-25T20:06:20.707Z,8.8
2023-03-25T20:12:21.768Z,8.6
2023-03-25T20:17:58.581Z,8.4
2023-03-25T20:23:49.114Z,8.3
2023-03-25T20:29:09.766Z,8.3
2023-03-25T20:34:57.471Z,8.1
2023-03-25T20:41:05.804Z,8.1
2023-03-25T20:46:56.635Z,8
2023-03-25T20:52:48.597Z,7.9
2023-03-25T20:58:41.129Z,7.9
2023-03-25T21:04:17.440Z,7.8
2023-03-25T21:10:19.801Z,7.8
2023-03-25T21:16:23.609Z,7.8
2023-03-25T21:22:17.729Z,7.8
2023-03-25T21:27:56.011Z,7.8
2023-03-25T21:33:49.398Z,7.8
2023-03-25T21:39:40.071Z,7.9
2023-03-25T21:45:50.481Z,7.9
2023-03-25T21:51:42.644Z,8.1
2023-03-25T22:02:43.139Z,8.2
2023-03-25T22:08:20.010Z,8.3
2023-03-25T22:14:10.781Z,8.3
2023-03-25T22:20:03.136Z,8.4
2023-03-25T22:25:57.707Z,8.4
2023-03-25T22:31:33.570Z,8.5
2023-03-25T22:37:25.048Z,8.6
2023-03-25T22:43:01.457Z,8.7
2023-03-25T22:48:53.868Z,8.8
2023-03-25T22:54:46.124Z,8.8
2023-03-25T23:00:38.694Z,8.9
2023-03-25T23:05:59.979Z,9
2023-03-25T23:11:46.414Z,9.1
2023-03-25T23:17:39.749Z,9.1
2023-03-25T23:23:16.525Z,9.2
2023-03-25T23:29:11.175Z,9.2
2023-03-25T23:35:03.142Z,9.2
2023-03-25T23:40:39.506Z,9.2
2023-03-25T23:46:32.363Z,9.2
2023-03-25T23:57:28.962Z,9.1
